Řízení letového provozu České republiky
Letiste: LKPD Aktualizace: 19.09.2018 18:01:06  UTC
 METAR LKPD 19.09. 18:00 ...
METAR LKPD 191800Z VRB02KT CAVOK 22/14 Q1020 NOSIG RMK BLU BLU=
 TAF LKPD 19.09. 17:00 ...
TAF LKPD 191700Z 1918/2018 VRB02KT CAVOK      PROB40 TEMPO 2001/2006 4000 BR NSC=